sensor_id;sensor_type;location;lat;lon;timestamp;temperature;humidity
22738;DHT22;11536;50.860;4.286;2023-01-06T00:00:16;12.30;99.90
22738;DHT22;11536;50.860;4.286;2023-01-06T00:02:42;12.30;99.90
22738;DHT22;11536;50.860;4.286;2023-01-06T00:05:09;12.20;99.90
22738;DHT22;11536;50.860;4.286;2023-01-06T00:07:35;12.20;99.90
22738;DHT22;11536;50.860;4.286;2023-01-06T00:10:01;12.30;99.90
22738;DHT22;11536;50.860;4.286;2023-01-06T00:12:26;12.20;99.90
22738;DHT22;11536;50.860;4.286;2023-01-06T00:14:52;12.30;99.90
22738;DHT22;11536;50.860;4.286;2023-01-06T00:17:18;12.30;99.90
22738;DHT22;11536;50.860;4.286;2023-01-06T00:19:43;12.20;99.90
22738;DHT22;11536;50.860;4.286;2023-01-06T00:22:09;12.20;99.90
22738;DHT22;11536;50.860;4.286;2023-01-06T00:24:34;12.20;99.90
22738;DHT22;11536;50.860;4.286;2023-01-06T00:27:00;12.20;99.90
22738;DHT22;11536;50.860;4.286;2023-01-06T00:29:26;12.20;99.90
22738;DHT22;11536;50.860;4.286;2023-01-06T00:31:52;12.20;99.90
22738;DHT22;11536;50.860;4.286;2023-01-06T00:34:17;12.20;99.90
22738;DHT22;11536;50.860;4.286;2023-01-06T00:36:43;12.20;99.90
22738;DHT22;11536;50.860;4.286;2023-01-06T00:39:11;12.20;99.90
22738;DHT22;11536;50.860;4.286;2023-01-06T00:41:37;12.20;99.90
22738;DHT22;11536;50.860;4.286;2023-01-06T00:44:22;12.20;99.90
22738;DHT22;11536;50.860;4.286;2023-01-06T00:46:47;12.20;99.90
22738;DHT22;11536;50.860;4.286;2023-01-06T00:49:13;12.20;99.90
22738;DHT22;11536;50.860;4.286;2023-01-06T00:51:39;12.20;99.90
22738;DHT22;11536;50.860;4.286;2023-01-06T00:54:06;12.20;99.90
22738;DHT22;11536;50.860;4.286;2023-01-06T00:56:41;12.20;99.90
22738;DHT22;11536;50.860;4.286;2023-01-06T00:59:08;12.20;99.90
22738;DHT22;11536;50.860;4.286;2023-01-06T01:01:34;12.20;99.90
22738;DHT22;11536;50.860;4.286;2023-01-06T01:04:01;12.20;99.90
22738;DHT22;11536;50.860;4.286;2023-01-06T01:06:26;12.20;99.90
22738;DHT22;11536;50.860;4.286;2023-01-06T01:08:57;12.20;99.90
22738;DHT22;11536;50.860;4.286;2023-01-06T01:11:23;12.20;99.90
22738;DHT22;11536;50.860;4.286;2023-01-06T01:14:08;12.20;99.90
22738;DHT22;11536;50.860;4.286;2023-01-06T01:16:34;12.20;99.90
22738;DHT22;11536;50.860;4.286;2023-01-06T01:19:00;12.20;99.90
22738;DHT22;11536;50.860;4.286;2023-01-06T01:21:25;12.20;99.90
22738;DHT22;11536;50.860;4.286;2023-01-06T01:23:51;12.20;99.90
22738;DHT22;11536;50.860;4.286;2023-01-06T01:26:16;12.20;99.90
22738;DHT22;11536;50.860;4.286;2023-01-06T01:28:43;12.20;99.90
22738;DHT22;11536;50.860;4.286;2023-01-06T01:31:09;12.20;99.90
22738;DHT22;11536;50.860;4.286;2023-01-06T01:33:34;12.20;99.90
22738;DHT22;11536;50.860;4.286;2023-01-06T01:36:08;12.20;99.90
22738;DHT22;11536;50.860;4.286;2023-01-06T01:38:34;12.20;99.90
22738;DHT22;11536;50.860;4.286;2023-01-06T01:41:00;12.20;99.90
22738;DHT22;11536;50.860;4.286;2023-01-06T01:44:45;12.20;99.90
22738;DHT22;11536;50.860;4.286;2023-01-06T01:48:59;12.20;99.90
22738;DHT22;11536;50.860;4.286;2023-01-06T01:51:29;12.20;99.90
22738;DHT22;11536;50.860;4.286;2023-01-06T01:53:58;12.20;99.90
22738;DHT22;11536;50.860;4.286;2023-01-06T01:56:28;12.20;99.90
22738;DHT22;11536;50.860;4.286;2023-01-06T01:58:59;12.20;99.90
22738;DHT22;11536;50.860;4.286;2023-01-06T02:01:26;12.20;99.90
22738;DHT22;11536;50.860;4.286;2023-01-06T02:03:52;12.20;99.90
22738;DHT22;11536;50.860;4.286;2023-01-06T02:06:23;12.20;99.90
22738;DHT22;11536;50.860;4.286;2023-01-06T02:08:59;12.20;99.90
22738;DHT22;11536;50.860;4.286;2023-01-06T02:11:30;12.20;99.90
22738;DHT22;11536;50.860;4.286;2023-01-06T02:14:04;12.20;99.90
22738;DHT22;11536;50.860;4.286;2023-01-06T02:17:12;12.20;99.90
22738;DHT22;11536;50.860;4.286;2023-01-06T02:20:40;12.20;99.90
22738;DHT22;11536;50.860;4.286;2023-01-06T02:23:20;12.20;99.90
22738;DHT22;11536;50.860;4.286;2023-01-06T02:43:28;12.20;99.90
22738;DHT22;11536;50.860;4.286;2023-01-06T02:46:19;12.10;99.90
22738;DHT22;11536;50.860;4.286;2023-01-06T02:51:56;12.10;99.90
22738;DHT22;11536;50.860;4.286;2023-01-06T02:54:42;12.10;99.90
22738;DHT22;11536;50.860;4.286;2023-01-06T02:57:24;12.10;99.90
22738;DHT22;11536;50.860;4.286;2023-01-06T03:00:13;12.10;99.90
22738;DHT22;11536;50.860;4.286;2023-01-06T03:02:43;12.10;99.90
22738;DHT22;11536;50.860;4.286;2023-01-06T03:05:12;12.10;99.90
22738;DHT22;11536;50.860;4.286;2023-01-06T03:07:40;12.10;99.90
22738;DHT22;11536;50.860;4.286;2023-01-06T03:10:07;12.10;99.90
22738;DHT22;11536;50.860;4.286;2023-01-06T03:13:05;12.10;99.90
22738;DHT22;11536;50.860;4.286;2023-01-06T03:15:32;12.10;99.90
22738;DHT22;11536;50.860;4.286;2023-01-06T03:17:57;12.10;99.90
22738;DHT22;11536;50.860;4.286;2023-01-06T03:20:23;12.00;99.90
22738;DHT22;11536;50.860;4.286;2023-01-06T03:22:49;12.10;99.90
22738;DHT22;11536;50.860;4.286;2023-01-06T03:25:14;12.00;99.90
22738;DHT22;11536;50.860;4.286;2023-01-06T03:27:40;12.00;99.90
22738;DHT22;11536;50.860;4.286;2023-01-06T03:30:08;12.00;99.90
22738;DHT22;11536;50.860;4.286;2023-01-06T03:32:41;12.00;99.90
22738;DHT22;11536;50.860;4.286;2023-01-06T03:43:39;12.00;99.90
22738;DHT22;11536;50.860;4.286;2023-01-06T03:51:40;12.00;99.90
22738;DHT22;11536;50.860;4.286;2023-01-06T03:57:01;11.90;99.90
22738;DHT22;11536;50.860;4.286;2023-01-06T03:59:30;11.90;99.90
22738;DHT22;11536;50.860;4.286;2023-01-06T04:01:57;11.90;99.90
22738;DHT22;11536;50.860;4.286;2023-01-06T04:04:23;11.90;99.90
22738;DHT22;11536;50.860;4.286;2023-01-06T04:06:48;11.90;99.90
22738;DHT22;11536;50.860;4.286;2023-01-06T04:09:14;11.90;99.90
22738;DHT22;11536;50.860;4.286;2023-01-06T04:11:40;11.90;99.90
22738;DHT22;11536;50.860;4.286;2023-01-06T04:14:24;11.90;99.90
22738;DHT22;11536;50.860;4.286;2023-01-06T04:16:49;11.90;99.90
22738;DHT22;11536;50.860;4.286;2023-01-06T04:19:15;11.90;99.90
22738;DHT22;11536;50.860;4.286;2023-01-06T04:21:40;11.90;99.90
22738;DHT22;11536;50.860;4.286;2023-01-06T04:24:06;11.90;99.90
22738;DHT22;11536;50.860;4.286;2023-01-06T04:26:32;11.90;99.90
22738;DHT22;11536;50.860;4.286;2023-01-06T04:28:59;11.90;99.90
22738;DHT22;11536;50.860;4.286;2023-01-06T04:31:25;11.90;99.90
22738;DHT22;11536;50.860;4.286;2023-01-06T04:33:50;11.90;99.90
22738;DHT22;11536;50.860;4.286;2023-01-06T04:36:16;11.90;99.90
22738;DHT22;11536;50.860;4.286;2023-01-06T04:38:42;11.90;99.90
22738;DHT22;11536;50.860;4.286;2023-01-06T04:41:07;11.90;99.90
22738;DHT22;11536;50.860;4.286;2023-01-06T04:43:33;11.90;99.90
22738;DHT22;11536;50.860;4.286;2023-01-06T04:45:59;11.90;99.90
22738;DHT22;11536;50.860;4.286;2023-01-06T04:48:24;11.90;99.90
22738;DHT22;11536;50.860;4.286;2023-01-06T04:50:59;11.80;99.90
22738;DHT22;11536;50.860;4.286;2023-01-06T04:53:25;11.80;99.90
22738;DHT22;11536;50.860;4.286;2023-01-06T04:55:50;11.90;99.90
22738;DHT22;11536;50.860;4.286;2023-01-06T04:58:16;11.90;99.90
22738;DHT22;11536;50.860;4.286;2023-01-06T05:00:41;11.90;99.90
22738;DHT22;11536;50.860;4.286;2023-01-06T05:03:07;11.90;99.90
22738;DHT22;11536;50.860;4.286;2023-01-06T05:05:32;11.90;99.90
22738;DHT22;11536;50.860;4.286;2023-01-06T05:07:58;12.00;99.90
22738;DHT22;11536;50.860;4.286;2023-01-06T05:10:24;11.90;99.90
22738;DHT22;11536;50.860;4.286;2023-01-06T05:12:49;11.90;99.90
22738;DHT22;11536;50.860;4.286;2023-01-06T05:15:15;11.90;99.90
22738;DHT22;11536;50.860;4.286;2023-01-06T05:17:40;11.90;99.90
22738;DHT22;11536;50.860;4.286;2023-01-06T05:20:06;12.00;99.90
22738;DHT22;11536;50.860;4.286;2023-01-06T05:22:32;12.00;99.90
22738;DHT22;11536;50.860;4.286;2023-01-06T05:24:57;12.00;99.90
22738;DHT22;11536;50.860;4.286;2023-01-06T05:27:23;12.00;99.90
22738;DHT22;11536;50.860;4.286;2023-01-06T05:29:48;12.00;99.90
22738;DHT22;11536;50.860;4.286;2023-01-06T05:32:14;12.00;99.90
22738;DHT22;11536;50.860;4.286;2023-01-06T05:34:40;12.00;99.90
22738;DHT22;11536;50.860;4.286;2023-01-06T05:37:05;12.00;99.90
22738;DHT22;11536;50.860;4.286;2023-01-06T05:39:31;12.00;99.90
22738;DHT22;11536;50.860;4.286;2023-01-06T05:41:56;12.00;99.90
22738;DHT22;11536;50.860;4.286;2023-01-06T05:44:22;12.00;99.90
22738;DHT22;11536;50.860;4.286;2023-01-06T05:46:47;12.00;99.90
22738;DHT22;11536;50.860;4.286;2023-01-06T05:49:13;12.10;99.90
22738;DHT22;11536;50.860;4.286;2023-01-06T05:51:39;12.10;99.90
22738;DHT22;11536;50.860;4.286;2023-01-06T05:54:07;12.10;99.90
22738;DHT22;11536;50.860;4.286;2023-01-06T05:56:33;12.10;99.90
22738;DHT22;11536;50.860;4.286;2023-01-06T05:58:58;12.10;99.90
22738;DHT22;11536;50.860;4.286;2023-01-06T06:01:26;12.10;99.90
22738;DHT22;11536;50.860;4.286;2023-01-06T06:03:52;12.10;99.90
22738;DHT22;11536;50.860;4.286;2023-01-06T06:06:19;12.10;99.90
22738;DHT22;11536;50.860;4.286;2023-01-06T06:08:45;12.20;99.90
22738;DHT22;11536;50.860;4.286;2023-01-06T06:11:13;12.10;99.90
22738;DHT22;11536;50.860;4.286;2023-01-06T06:13:47;12.10;99.90
22738;DHT22;11536;50.860;4.286;2023-01-06T06:16:13;12.10;99.90
22738;DHT22;11536;50.860;4.286;2023-01-06T06:18:40;12.10;99.90
22738;DHT22;11536;50.860;4.286;2023-01-06T06:21:11;12.10;99.90
22738;DHT22;11536;50.860;4.286;2023-01-06T06:23:36;12.10;99.90
22738;DHT22;11536;50.860;4.286;2023-01-06T06:26:02;12.10;99.90
22738;DHT22;11536;50.860;4.286;2023-01-06T06:28:34;12.10;99.90
22738;DHT22;11536;50.860;4.286;2023-01-06T06:31:29;12.10;99.90
22738;DHT22;11536;50.860;4.286;2023-01-06T06:33:57;12.10;99.90
22738;DHT22;11536;50.860;4.286;2023-01-06T06:36:23;12.10;99.90
22738;DHT22;11536;50.860;4.286;2023-01-06T06:38:50;12.10;99.90
22738;DHT22;11536;50.860;4.286;2023-01-06T06:41:17;12.10;99.90
22738;DHT22;11536;50.860;4.286;2023-01-06T06:43:42;12.20;99.90
22738;DHT22;11536;50.860;4.286;2023-01-06T06:46:09;12.10;99.90
22738;DHT22;11536;50.860;4.286;2023-01-06T06:48:35;12.20;99.90
22738;DHT22;11536;50.860;4.286;2023-01-06T06:51:02;12.10;99.90
22738;DHT22;11536;50.860;4.286;2023-01-06T06:53:28;12.20;99.90
22738;DHT22;11536;50.860;4.286;2023-01-06T06:55:54;12.10;99.90
22738;DHT22;11536;50.860;4.286;2023-01-06T06:58:20;12.20;99.90
22738;DHT22;11536;50.860;4.286;2023-01-06T07:00:46;12.20;99.90
22738;DHT22;11536;50.860;4.286;2023-01-06T07:03:11;12.20;99.90
22738;DHT22;11536;50.860;4.286;2023-01-06T07:05:37;12.20;99.90
22738;DHT22;11536;50.860;4.286;2023-01-06T07:08:03;12.20;99.90
22738;DHT22;11536;50.860;4.286;2023-01-06T07:10:29;12.20;99.90
22738;DHT22;11536;50.860;4.286;2023-01-06T07:12:54;12.20;99.90
22738;DHT22;11536;50.860;4.286;2023-01-06T07:15:20;12.20;99.90
22738;DHT22;11536;50.860;4.286;2023-01-06T07:17:45;12.20;99.90
22738;DHT22;11536;50.860;4.286;2023-01-06T07:20:11;12.20;99.90
22738;DHT22;11536;50.860;4.286;2023-01-06T07:22:38;12.20;99.90
22738;DHT22;11536;50.860;4.286;2023-01-06T07:25:08;12.20;99.90
22738;DHT22;11536;50.860;4.286;2023-01-06T07:27:34;12.20;99.90
22738;DHT22;11536;50.860;4.286;2023-01-06T07:30:00;12.10;99.90
22738;DHT22;11536;50.860;4.286;2023-01-06T07:32:26;12.10;99.90
22738;DHT22;11536;50.860;4.286;2023-01-06T07:34:52;12.10;99.90
22738;DHT22;11536;50.860;4.286;2023-01-06T07:37:17;12.00;99.90
22738;DHT22;11536;50.860;4.286;2023-01-06T07:39:43;12.00;99.90
22738;DHT22;11536;50.860;4.286;2023-01-06T07:42:09;12.00;99.90
22738;DHT22;11536;50.860;4.286;2023-01-06T07:44:35;12.10;99.90
22738;DHT22;11536;50.860;4.286;2023-01-06T07:47:00;12.00;99.90
22738;DHT22;11536;50.860;4.286;2023-01-06T07:49:26;12.00;99.90
22738;DHT22;11536;50.860;4.286;2023-01-06T07:51:52;12.00;99.90
22738;DHT22;11536;50.860;4.286;2023-01-06T07:54:17;12.10;99.90
22738;DHT22;11536;50.860;4.286;2023-01-06T07:56:43;12.10;99.90
22738;DHT22;11536;50.860;4.286;2023-01-06T07:59:09;12.00;99.90
22738;DHT22;11536;50.860;4.286;2023-01-06T08:01:35;12.00;99.90
22738;DHT22;11536;50.860;4.286;2023-01-06T08:04:01;12.00;99.90
22738;DHT22;11536;50.860;4.286;2023-01-06T08:06:26;12.00;99.90
22738;DHT22;11536;50.860;4.286;2023-01-06T08:08:52;12.00;99.90
22738;DHT22;11536;50.860;4.286;2023-01-06T08:11:18;12.00;99.90
22738;DHT22;11536;50.860;4.286;2023-01-06T08:13:44;12.00;99.90
22738;DHT22;11536;50.860;4.286;2023-01-06T08:16:10;12.00;99.90
22738;DHT22;11536;50.860;4.286;2023-01-06T08:18:36;12.10;99.90
22738;DHT22;11536;50.860;4.286;2023-01-06T08:21:07;12.00;99.90
22738;DHT22;11536;50.860;4.286;2023-01-06T08:23:34;12.10;99.90
22738;DHT22;11536;50.860;4.286;2023-01-06T08:26:18;12.00;99.90
22738;DHT22;11536;50.860;4.286;2023-01-06T08:28:44;12.10;99.90
22738;DHT22;11536;50.860;4.286;2023-01-06T08:31:12;12.10;99.90
22738;DHT22;11536;50.860;4.286;2023-01-06T08:33:38;12.10;99.90
22738;DHT22;11536;50.860;4.286;2023-01-06T08:36:06;12.10;99.90
22738;DHT22;11536;50.860;4.286;2023-01-06T08:38:33;12.10;99.90
22738;DHT22;11536;50.860;4.286;2023-01-06T08:41:00;12.10;99.90
22738;DHT22;11536;50.860;4.286;2023-01-06T08:43:26;12.10;99.90
22738;DHT22;11536;50.860;4.286;2023-01-06T08:45:53;12.10;99.90
22738;DHT22;11536;50.860;4.286;2023-01-06T08:48:22;12.10;99.90
22738;DHT22;11536;50.860;4.286;2023-01-06T08:50:48;12.10;99.90
22738;DHT22;11536;50.860;4.286;2023-01-06T08:53:13;12.10;99.90
22738;DHT22;11536;50.860;4.286;2023-01-06T08:55:40;12.10;99.90
22738;DHT22;11536;50.860;4.286;2023-01-06T08:58:06;12.20;99.90
22738;DHT22;11536;50.860;4.286;2023-01-06T09:00:32;12.20;99.90
22738;DHT22;11536;50.860;4.286;2023-01-06T09:02:57;12.20;99.90
22738;DHT22;11536;50.860;4.286;2023-01-06T09:05:23;12.10;99.90
22738;DHT22;11536;50.860;4.286;2023-01-06T09:07:49;12.20;99.90
22738;DHT22;11536;50.860;4.286;2023-01-06T09:10:18;12.20;99.90
22738;DHT22;11536;50.860;4.286;2023-01-06T09:12:44;12.20;99.90
22738;DHT22;11536;50.860;4.286;2023-01-06T09:15:10;12.20;99.90
22738;DHT22;11536;50.860;4.286;2023-01-06T09:17:36;12.20;99.90
22738;DHT22;11536;50.860;4.286;2023-01-06T09:20:02;12.20;99.90
22738;DHT22;11536;50.860;4.286;2023-01-06T09:22:27;12.20;99.90
22738;DHT22;11536;50.860;4.286;2023-01-06T09:24:53;12.20;99.90
22738;DHT22;11536;50.860;4.286;2023-01-06T09:27:19;12.10;99.90
22738;DHT22;11536;50.860;4.286;2023-01-06T09:29:44;12.10;99.90
22738;DHT22;11536;50.860;4.286;2023-01-06T09:32:10;12.10;99.90
22738;DHT22;11536;50.860;4.286;2023-01-06T09:34:35;12.10;99.90
22738;DHT22;11536;50.860;4.286;2023-01-06T09:37:01;12.10;99.90
22738;DHT22;11536;50.860;4.286;2023-01-06T09:39:27;12.10;99.90
22738;DHT22;11536;50.860;4.286;2023-01-06T09:47:35;12.10;99.90
22738;DHT22;11536;50.860;4.286;2023-01-06T09:50:14;12.10;99.90
22738;DHT22;11536;50.860;4.286;2023-01-06T09:52:51;12.10;99.90
22738;DHT22;11536;50.860;4.286;2023-01-06T09:55:31;12.00;99.90
22738;DHT22;11536;50.860;4.286;2023-01-06T09:58:02;12.10;99.90
22738;DHT22;11536;50.860;4.286;2023-01-06T10:00:43;12.10;99.90
22738;DHT22;11536;50.860;4.286;2023-01-06T10:03:18;12.00;99.90
22738;DHT22;11536;50.860;4.286;2023-01-06T10:05:57;12.00;99.90
22738;DHT22;11536;50.860;4.286;2023-01-06T10:14:38;12.10;99.90
22738;DHT22;11536;50.860;4.286;2023-01-06T10:17:33;12.10;99.90
22738;DHT22;11536;50.860;4.286;2023-01-06T10:20:12;12.10;99.90
22738;DHT22;11536;50.860;4.286;2023-01-06T10:23:00;12.10;99.90
22738;DHT22;11536;50.860;4.286;2023-01-06T10:25:40;12.10;99.90
22738;DHT22;11536;50.860;4.286;2023-01-06T10:28:17;12.10;99.90
22738;DHT22;11536;50.860;4.286;2023-01-06T10:30:46;12.10;99.90
22738;DHT22;11536;50.860;4.286;2023-01-06T10:33:40;12.10;99.90
22738;DHT22;11536;50.860;4.286;2023-01-06T10:36:12;12.20;99.90
22738;DHT22;11536;50.860;4.286;2023-01-06T10:38:45;12.10;99.90
22738;DHT22;11536;50.860;4.286;2023-01-06T10:44:16;12.20;99.90
22738;DHT22;11536;50.860;4.286;2023-01-06T10:46:42;12.20;99.90
22738;DHT22;11536;50.860;4.286;2023-01-06T10:49:15;12.20;99.90
22738;DHT22;11536;50.860;4.286;2023-01-06T10:51:43;12.20;99.90
22738;DHT22;11536;50.860;4.286;2023-01-06T10:54:26;12.20;99.90
22738;DHT22;11536;50.860;4.286;2023-01-06T10:56:55;12.30;99.90
22738;DHT22;11536;50.860;4.286;2023-01-06T10:59:23;12.30;99.90
22738;DHT22;11536;50.860;4.286;2023-01-06T11:01:53;12.30;99.90
22738;DHT22;11536;50.860;4.286;2023-01-06T11:04:21;12.30;99.90
22738;DHT22;11536;50.860;4.286;2023-01-06T11:07:11;12.30;99.90
22738;DHT22;11536;50.860;4.286;2023-01-06T11:09:41;12.30;99.90
22738;DHT22;11536;50.860;4.286;2023-01-06T11:12:21;12.30;99.90
22738;DHT22;11536;50.860;4.286;2023-01-06T11:14:59;12.30;99.90
22738;DHT22;11536;50.860;4.286;2023-01-06T11:17:26;12.30;99.90
22738;DHT22;11536;50.860;4.286;2023-01-06T11:22:36;12.30;99.90
22738;DHT22;11536;50.860;4.286;2023-01-06T11:25:20;12.30;99.90
22738;DHT22;11536;50.860;4.286;2023-01-06T11:27:48;12.30;99.90
22738;DHT22;11536;50.860;4.286;2023-01-06T11:30:38;12.30;99.90
22738;DHT22;11536;50.860;4.286;2023-01-06T11:33:12;12.30;99.90
22738;DHT22;11536;50.860;4.286;2023-01-06T11:35:38;12.30;99.90
22738;DHT22;11536;50.860;4.286;2023-01-06T11:38:04;12.30;99.90
22738;DHT22;11536;50.860;4.286;2023-01-06T11:40:32;12.30;99.90
22738;DHT22;11536;50.860;4.286;2023-01-06T11:43:01;12.30;99.90
22738;DHT22;11536;50.860;4.286;2023-01-06T11:45:30;12.30;99.90
22738;DHT22;11536;50.860;4.286;2023-01-06T11:47:59;12.30;99.90
22738;DHT22;11536;50.860;4.286;2023-01-06T11:50:24;12.30;99.90
22738;DHT22;11536;50.860;4.286;2023-01-06T11:53:02;12.30;99.90
22738;DHT22;11536;50.860;4.286;2023-01-06T11:55:28;12.30;99.90
22738;DHT22;11536;50.860;4.286;2023-01-06T11:58:12;12.30;99.90
22738;DHT22;11536;50.860;4.286;2023-01-06T12:00:43;12.40;99.90
22738;DHT22;11536;50.860;4.286;2023-01-06T12:03:27;12.40;99.90
22738;DHT22;11536;50.860;4.286;2023-01-06T12:06:14;12.40;99.90
22738;DHT22;11536;50.860;4.286;2023-01-06T12:13:51;12.40;99.90
22738;DHT22;11536;50.860;4.286;2023-01-06T12:17:10;12.40;99.90
22738;DHT22;11536;50.860;4.286;2023-01-06T12:19:18;12.40;99.90
22738;DHT22;11536;50.860;4.286;2023-01-06T12:21:44;12.40;99.90
22738;DHT22;11536;50.860;4.286;2023-01-06T12:24:14;12.40;99.90
22738;DHT22;11536;50.860;4.286;2023-01-06T12:26:41;12.40;99.90
22738;DHT22;11536;50.860;4.286;2023-01-06T12:29:07;12.40;99.90
22738;DHT22;11536;50.860;4.286;2023-01-06T12:36:41;12.40;99.90
22738;DHT22;11536;50.860;4.286;2023-01-06T12:39:19;12.40;99.90
22738;DHT22;11536;50.860;4.286;2023-01-06T12:41:50;12.50;99.90
22738;DHT22;11536;50.860;4.286;2023-01-06T12:44:56;12.50;99.90
22738;DHT22;11536;50.860;4.286;2023-01-06T12:47:33;12.50;99.90
22738;DHT22;11536;50.860;4.286;2023-01-06T12:50:10;12.50;99.90
22738;DHT22;11536;50.860;4.286;2023-01-06T12:52:53;12.50;99.90
22738;DHT22;11536;50.860;4.286;2023-01-06T13:00:41;12.50;99.90
22738;DHT22;11536;50.860;4.286;2023-01-06T13:03:34;12.50;99.90
22738;DHT22;11536;50.860;4.286;2023-01-06T13:06:55;12.60;99.90
22738;DHT22;11536;50.860;4.286;2023-01-06T13:14:18;12.60;99.90
22738;DHT22;11536;50.860;4.286;2023-01-06T13:19:36;12.70;99.90
22738;DHT22;11536;50.860;4.286;2023-01-06T13:22:10;12.70;99.90
22738;DHT22;11536;50.860;4.286;2023-01-06T13:25:02;12.70;99.90
22738;DHT22;11536;50.860;4.286;2023-01-06T13:30:43;12.80;99.90
22738;DHT22;11536;50.860;4.286;2023-01-06T13:36:29;12.80;99.90
22738;DHT22;11536;50.860;4.286;2023-01-06T13:39:05;12.80;99.90
22738;DHT22;11536;50.860;4.286;2023-01-06T13:41:35;12.80;99.90
22738;DHT22;11536;50.860;4.286;2023-01-06T13:44:03;12.80;99.90
22738;DHT22;11536;50.860;4.286;2023-01-06T13:46:31;12.80;99.90
22738;DHT22;11536;50.860;4.286;2023-01-06T13:49:01;12.80;99.90
22738;DHT22;11536;50.860;4.286;2023-01-06T13:51:32;12.80;99.90
22738;DHT22;11536;50.860;4.286;2023-01-06T13:53:58;12.90;99.90
22738;DHT22;11536;50.860;4.286;2023-01-06T13:56:28;12.90;99.90
22738;DHT22;11536;50.860;4.286;2023-01-06T13:59:22;12.90;99.90
22738;DHT22;11536;50.860;4.286;2023-01-06T14:01:48;12.90;99.90
22738;DHT22;11536;50.860;4.286;2023-01-06T14:07:00;12.90;99.90
22738;DHT22;11536;50.860;4.286;2023-01-06T14:09:26;12.90;99.90
22738;DHT22;11536;50.860;4.286;2023-01-06T14:11:52;12.90;99.90
22738;DHT22;11536;50.860;4.286;2023-01-06T14:14:24;12.90;99.90
22738;DHT22;11536;50.860;4.286;2023-01-06T14:16:52;12.90;99.90
22738;DHT22;11536;50.860;4.286;2023-01-06T14:19:22;12.90;99.90
22738;DHT22;11536;50.860;4.286;2023-01-06T14:21:52;12.90;99.90
22738;DHT22;11536;50.860;4.286;2023-01-06T14:24:24;12.90;99.90
22738;DHT22;11536;50.860;4.286;2023-01-06T14:27:05;12.90;99.90
22738;DHT22;11536;50.860;4.286;2023-01-06T14:35:11;12.90;99.90
22738;DHT22;11536;50.860;4.286;2023-01-06T14:37:50;12.90;99.90
22738;DHT22;11536;50.860;4.286;2023-01-06T14:40:21;12.90;99.90
22738;DHT22;11536;50.860;4.286;2023-01-06T14:42:48;12.90;99.90
22738;DHT22;11536;50.860;4.286;2023-01-06T14:45:23;12.90;99.90
22738;DHT22;11536;50.860;4.286;2023-01-06T14:47:59;12.90;99.90
22738;DHT22;11536;50.860;4.286;2023-01-06T14:50:29;12.90;99.90
22738;DHT22;11536;50.860;4.286;2023-01-06T14:53:01;12.90;99.90
22738;DHT22;11536;50.860;4.286;2023-01-06T14:55:30;12.90;99.90
22738;DHT22;11536;50.860;4.286;2023-01-06T14:57:56;12.90;99.90
22738;DHT22;11536;50.860;4.286;2023-01-06T15:00:27;12.90;99.90
22738;DHT22;11536;50.860;4.286;2023-01-06T15:02:58;12.90;99.90
22738;DHT22;11536;50.860;4.286;2023-01-06T15:05:32;12.90;99.90
22738;DHT22;11536;50.860;4.286;2023-01-06T15:15:43;12.90;99.90
22738;DHT22;11536;50.860;4.286;2023-01-06T15:18:10;12.90;99.90
22738;DHT22;11536;50.860;4.286;2023-01-06T15:20:41;12.90;99.90
22738;DHT22;11536;50.860;4.286;2023-01-06T15:23:13;12.90;99.90
22738;DHT22;11536;50.860;4.286;2023-01-06T15:25:40;12.90;99.90
22738;DHT22;11536;50.860;4.286;2023-01-06T15:30:50;12.90;99.90
22738;DHT22;11536;50.860;4.286;2023-01-06T15:33:16;12.80;99.90
22738;DHT22;11536;50.860;4.286;2023-01-06T15:35:42;12.80;99.90
22738;DHT22;11536;50.860;4.286;2023-01-06T15:38:27;12.80;99.90
22738;DHT22;11536;50.860;4.286;2023-01-06T15:40:53;12.80;99.90
22738;DHT22;11536;50.860;4.286;2023-01-06T15:43:22;12.80;99.90
22738;DHT22;11536;50.860;4.286;2023-01-06T15:46:05;12.80;99.90
22738;DHT22;11536;50.860;4.286;2023-01-06T15:48:34;12.80;99.90
22738;DHT22;11536;50.860;4.286;2023-01-06T15:51:13;12.80;99.90
22738;DHT22;11536;50.860;4.286;2023-01-06T15:53:39;12.80;99.90
22738;DHT22;11536;50.860;4.286;2023-01-06T15:56:05;12.80;99.90
22738;DHT22;11536;50.860;4.286;2023-01-06T15:58:35;12.80;99.90
22738;DHT22;11536;50.860;4.286;2023-01-06T16:01:13;12.80;99.90
22738;DHT22;11536;50.860;4.286;2023-01-06T16:03:48;12.80;99.90
22738;DHT22;11536;50.860;4.286;2023-01-06T16:06:24;12.80;99.90
22738;DHT22;11536;50.860;4.286;2023-01-06T16:08:50;12.80;99.90
22738;DHT22;11536;50.860;4.286;2023-01-06T16:18:41;12.80;99.90
22738;DHT22;11536;50.860;4.286;2023-01-06T16:21:21;12.80;99.90
22738;DHT22;11536;50.860;4.286;2023-01-06T16:23:53;12.80;99.90
22738;DHT22;11536;50.860;4.286;2023-01-06T16:26:29;12.80;99.90
22738;DHT22;11536;50.860;4.286;2023-01-06T16:28:59;12.80;99.90
22738;DHT22;11536;50.860;4.286;2023-01-06T16:31:32;12.80;99.90
22738;DHT22;11536;50.860;4.286;2023-01-06T16:36:42;12.80;99.90
22738;DHT22;11536;50.860;4.286;2023-01-06T16:39:07;12.80;99.90
22738;DHT22;11536;50.860;4.286;2023-01-06T16:41:33;12.80;99.90
22738;DHT22;11536;50.860;4.286;2023-01-06T16:43:58;12.80;99.90
22738;DHT22;11536;50.860;4.286;2023-01-06T16:46:24;12.80;99.90
22738;DHT22;11536;50.860;4.286;2023-01-06T16:48:53;12.70;99.90
22738;DHT22;11536;50.860;4.286;2023-01-06T16:51:19;12.80;99.90
22738;DHT22;11536;50.860;4.286;2023-01-06T16:53:46;12.70;99.90
22738;DHT22;11536;50.860;4.286;2023-01-06T16:56:21;12.70;99.90
22738;DHT22;11536;50.860;4.286;2023-01-06T16:58:48;12.70;99.90
22738;DHT22;11536;50.860;4.286;2023-01-06T17:01:16;12.70;99.90
22738;DHT22;11536;50.860;4.286;2023-01-06T17:03:43;12.70;99.90
22738;DHT22;11536;50.860;4.286;2023-01-06T17:06:17;12.70;99.90
22738;DHT22;11536;50.860;4.286;2023-01-06T17:08:44;12.70;99.90
22738;DHT22;11536;50.860;4.286;2023-01-06T17:11:37;12.70;99.90
22738;DHT22;11536;50.860;4.286;2023-01-06T17:14:12;12.70;99.90
22738;DHT22;11536;50.860;4.286;2023-01-06T17:16:39;12.60;99.90
22738;DHT22;11536;50.860;4.286;2023-01-06T17:22:28;12.60;99.90
22738;DHT22;11536;50.860;4.286;2023-01-06T17:24:56;12.60;99.90
22738;DHT22;11536;50.860;4.286;2023-01-06T17:27:28;12.60;99.90
22738;DHT22;11536;50.860;4.286;2023-01-06T17:29:57;12.60;99.90
22738;DHT22;11536;50.860;4.286;2023-01-06T17:32:34;12.60;99.90
22738;DHT22;11536;50.860;4.286;2023-01-06T17:35:04;12.70;99.90
22738;DHT22;11536;50.860;4.286;2023-01-06T17:37:37;12.60;99.90
22738;DHT22;11536;50.860;4.286;2023-01-06T17:40:14;12.60;99.90
22738;DHT22;11536;50.860;4.286;2023-01-06T17:42:41;12.70;99.90
22738;DHT22;11536;50.860;4.286;2023-01-06T17:45:22;12.60;99.90
22738;DHT22;11536;50.860;4.286;2023-01-06T17:47:49;12.60;99.90